createdAt,value
2018-10-03T00:00:02.134Z,30.90
2018-10-03T00:02:30.449Z,30.17
2018-10-03T00:04:58.773Z,32.93
2018-10-03T00:07:27.074Z,32.33
2018-10-03T00:09:55.401Z,31.93
2018-10-03T00:12:23.761Z,32.67
2018-10-03T00:14:52.104Z,32.13
2018-10-03T00:17:20.424Z,27.57
2018-10-03T00:19:48.747Z,32.57
2018-10-03T00:22:17.045Z,27.87
2018-10-03T00:24:45.361Z,36.13
2018-10-03T00:27:13.676Z,32.07
2018-10-03T00:29:41.997Z,29.60
2018-10-03T00:32:10.297Z,33.70
2018-10-03T00:34:38.618Z,31.20
2018-10-03T00:37:06.920Z,32.47
2018-10-03T00:39:35.221Z,28.30
2018-10-03T00:42:03.545Z,26.57
2018-10-03T00:44:31.849Z,33.50
2018-10-03T00:47:00.169Z,32.13
2018-10-03T00:49:28.483Z,28.63
2018-10-03T00:51:56.801Z,27.83
2018-10-03T00:54:25.103Z,28.83
2018-10-03T00:56:53.421Z,28.50
2018-10-03T00:59:21.737Z,28.00
2018-10-03T01:01:50.062Z,28.17
2018-10-03T01:04:18.364Z,25.77
2018-10-03T01:06:46.684Z,27.50
2018-10-03T01:09:14.994Z,35.37
2018-10-03T01:11:43.342Z,32.00
2018-10-03T01:14:11.645Z,25.80
2018-10-03T01:16:39.969Z,30.03
2018-10-03T01:19:08.278Z,30.10
2018-10-03T01:21:36.589Z,34.27
2018-10-03T01:24:04.913Z,29.43
2018-10-03T01:26:33.236Z,33.13
2018-10-03T01:29:01.528Z,26.93
2018-10-03T01:31:29.853Z,30.10
2018-10-03T01:33:58.149Z,31.43
2018-10-03T01:36:26.473Z,28.63
2018-10-03T01:38:54.787Z,32.77
2018-10-03T01:41:23.133Z,26.10
2018-10-03T01:43:51.441Z,28.57
2018-10-03T01:46:19.761Z,27.53
2018-10-03T01:48:48.077Z,25.67
2018-10-03T01:51:16.413Z,27.10
2018-10-03T01:53:44.712Z,29.37
2018-10-03T01:56:13.033Z,27.07
2018-10-03T01:58:41.333Z,23.17
2018-10-03T02:01:09.669Z,23.80
2018-10-03T02:03:37.992Z,23.60
2018-10-03T02:06:06.332Z,23.17
2018-10-03T02:08:34.633Z,26.30
2018-10-03T02:11:02.951Z,25.93
2018-10-03T02:13:31.247Z,24.40
2018-10-03T02:15:59.590Z,21.43
2018-10-03T02:18:27.914Z,22.27
2018-10-03T02:20:56.228Z,22.17
2018-10-03T02:23:24.553Z,19.87
2018-10-03T02:25:52.861Z,19.17
2018-10-03T02:28:21.185Z,16.30
2018-10-03T02:30:49.573Z,18.10
2018-10-03T02:33:17.904Z,17.13
2018-10-03T02:35:46.210Z,18.07
2018-10-03T02:38:14.541Z,14.43
2018-10-03T02:40:42.858Z,20.03
2018-10-03T02:43:11.186Z,18.37
2018-10-03T02:45:39.490Z,14.57
2018-10-03T02:48:07.830Z,16.37
2018-10-03T02:50:36.133Z,13.40
2018-10-03T02:53:04.589Z,14.17
2018-10-03T02:55:32.884Z,12.97
2018-10-03T02:58:01.196Z,11.63
2018-10-03T03:00:29.522Z,12.60
2018-10-03T03:02:57.856Z,12.47
2018-10-03T03:05:26.165Z,13.20
2018-10-03T03:07:54.481Z,11.57
2018-10-03T03:10:22.782Z,9.80
2018-10-03T03:12:51.096Z,9.77
2018-10-03T03:15:19.392Z,8.93
2018-10-03T03:17:47.713Z,9.47
2018-10-03T03:20:16.053Z,8.03
2018-10-03T03:22:44.377Z,10.47
2018-10-03T03:25:12.672Z,9.23
2018-10-03T03:27:41.015Z,10.13
2018-10-03T03:30:09.322Z,8.47
2018-10-03T03:32:37.637Z,8.30
2018-10-03T03:35:05.976Z,8.53
2018-10-03T03:37:34.313Z,10.87
2018-10-03T03:40:02.629Z,9.87
2018-10-03T03:42:30.970Z,8.63
2018-10-03T03:44:59.278Z,8.00
2018-10-03T03:47:27.593Z,9.70
2018-10-03T03:49:55.924Z,8.90
2018-10-03T03:52:24.242Z,9.80
2018-10-03T03:54:52.538Z,8.67
2018-10-03T03:57:20.857Z,9.43
2018-10-03T03:59:49.158Z,8.30
2018-10-03T04:02:17.473Z,9.23
2018-10-03T04:04:45.760Z,10.43
2018-10-03T04:07:14.080Z,8.93
2018-10-03T04:09:42.376Z,10.30
2018-10-03T04:12:10.665Z,7.90
2018-10-03T04:14:38.990Z,8.53
2018-10-03T04:17:07.287Z,7.20
2018-10-03T04:19:35.617Z,7.17
2018-10-03T04:22:03.913Z,8.00
2018-10-03T04:24:32.233Z,8.63
2018-10-03T04:27:00.531Z,6.83
2018-10-03T04:29:28.845Z,8.30
2018-10-03T04:31:57.158Z,8.00
2018-10-03T04:34:25.483Z,6.57
2018-10-03T04:36:54.092Z,8.27
2018-10-03T04:39:22.400Z,8.10
2018-10-03T04:41:50.697Z,8.10
2018-10-03T04:44:19.033Z,8.27
2018-10-03T04:46:47.400Z,8.97
2018-10-03T04:49:15.729Z,10.07
2018-10-03T04:51:44.042Z,8.60
2018-10-03T04:54:12.371Z,9.90
2018-10-03T04:56:40.685Z,8.30
2018-10-03T04:59:09.021Z,9.63
2018-10-03T05:01:37.334Z,9.53
2018-10-03T05:04:05.668Z,7.90
2018-10-03T05:06:33.976Z,7.97
2018-10-03T05:09:02.322Z,8.37
2018-10-03T05:11:30.658Z,8.53
2018-10-03T05:13:58.948Z,8.70
2018-10-03T05:16:27.250Z,7.97
2018-10-03T05:18:55.692Z,7.70
2018-10-03T05:21:24.141Z,12.17
2018-10-03T05:23:52.473Z,8.30
2018-10-03T05:26:20.788Z,7.30
2018-10-03T05:28:49.100Z,7.70
2018-10-03T05:31:17.403Z,6.90
2018-10-03T05:33:45.757Z,7.80
2018-10-03T05:36:14.056Z,8.87
2018-10-03T05:38:42.382Z,8.60
2018-10-03T05:41:10.680Z,8.87
2018-10-03T05:43:39.022Z,7.60
2018-10-03T05:46:07.325Z,8.93
2018-10-03T05:48:35.728Z,8.27
2018-10-03T05:51:04.000Z,8.47
2018-10-03T05:53:32.327Z,8.43
2018-10-03T05:56:00.625Z,8.60
2018-10-03T05:58:28.945Z,8.80
2018-10-03T06:00:57.237Z,9.10
2018-10-03T06:03:25.554Z,8.00
2018-10-03T06:05:53.857Z,9.30
2018-10-03T06:08:22.275Z,9.23
2018-10-03T06:10:50.573Z,11.53
2018-10-03T06:13:18.864Z,10.53
2018-10-03T06:15:47.216Z,10.30
2018-10-03T06:18:15.523Z,10.87
2018-10-03T06:20:43.858Z,10.17
2018-10-03T06:23:12.157Z,9.67
2018-10-03T06:25:40.486Z,10.63
2018-10-03T06:28:08.846Z,10.33
2018-10-03T06:30:37.145Z,11.57
2018-10-03T06:33:05.516Z,11.73
2018-10-03T06:35:33.849Z,12.17
2018-10-03T06:38:02.153Z,17.33
2018-10-03T06:40:30.569Z,15.37
2018-10-03T06:42:58.804Z,14.17
2018-10-03T06:45:27.201Z,14.23
2018-10-03T06:47:55.492Z,15.40
2018-10-03T06:50:23.813Z,11.47
2018-10-03T06:52:52.133Z,12.27
2018-10-03T06:55:20.470Z,25.07
2018-10-03T06:57:48.789Z,23.07
2018-10-03T07:00:17.134Z,17.10
2018-10-03T07:02:45.469Z,18.13
2018-10-03T07:05:13.796Z,16.03
2018-10-03T07:07:42.143Z,16.20
2018-10-03T07:10:10.480Z,19.63
2018-10-03T07:12:38.803Z,28.37
2018-10-03T07:15:07.182Z,17.70
2018-10-03T07:17:35.495Z,17.83
2018-10-03T07:20:03.934Z,20.63
2018-10-03T07:22:32.266Z,31.10
2018-10-03T07:25:00.602Z,22.20
2018-10-03T07:27:28.921Z,30.33
2018-10-03T07:29:57.253Z,22.13
2018-10-03T07:32:25.590Z,33.23
2018-10-03T07:34:53.936Z,23.10
2018-10-03T07:37:22.262Z,35.07
2018-10-03T07:39:50.585Z,17.97
2018-10-03T07:42:18.905Z,25.03
2018-10-03T07:44:47.232Z,31.10
2018-10-03T07:47:15.553Z,27.13
2018-10-03T07:49:43.889Z,29.83
2018-10-03T07:52:12.205Z,22.73
2018-10-03T07:54:40.541Z,25.13
2018-10-03T07:57:08.970Z,24.67
2018-10-03T07:59:37.357Z,27.70
2018-10-03T08:02:05.691Z,21.60
2018-10-03T08:04:34.002Z,22.63
2018-10-03T08:07:02.329Z,22.67
2018-10-03T08:09:30.637Z,24.17
2018-10-03T08:11:58.970Z,22.17
2018-10-03T08:14:27.286Z,21.67
2018-10-03T08:16:55.638Z,19.47
2018-10-03T08:19:23.980Z,22.17
2018-10-03T08:21:52.341Z,21.83
2018-10-03T08:24:20.693Z,22.83
2018-10-03T08:26:49.022Z,20.70
2018-10-03T08:29:17.354Z,21.73
2018-10-03T08:31:45.686Z,16.70
2018-10-03T08:34:14.011Z,22.17
2018-10-03T08:36:42.363Z,18.37
2018-10-03T08:39:12.801Z,21.30
2018-10-03T08:41:41.170Z,21.20
2018-10-03T08:44:10.095Z,19.27
2018-10-03T08:46:38.434Z,18.17
2018-10-03T08:49:07.029Z,18.57
2018-10-03T08:51:35.413Z,17.47
2018-10-03T08:54:03.863Z,17.23
2018-10-03T08:56:32.206Z,14.63
2018-10-03T08:59:00.513Z,15.73
2018-10-03T09:01:28.853Z,14.27
2018-10-03T09:03:57.172Z,13.17
2018-10-03T09:06:25.503Z,13.80
2018-10-03T09:08:53.810Z,12.90
2018-10-03T09:11:22.140Z,12.63
2018-10-03T09:13:50.466Z,13.70
2018-10-03T09:16:18.810Z,13.00
2018-10-03T09:18:47.114Z,11.10
2018-10-03T09:21:15.461Z,12.37
2018-10-03T09:23:43.765Z,9.07
2018-10-03T09:26:12.101Z,11.23
2018-10-03T09:28:40.429Z,10.03
2018-10-03T09:31:08.765Z,9.83
2018-10-03T09:33:37.094Z,9.00
2018-10-03T09:36:05.430Z,10.63
2018-10-03T09:38:33.761Z,10.13
2018-10-03T09:41:02.103Z,10.93
2018-10-03T09:43:30.415Z,10.23
2018-10-03T09:45:58.746Z,12.67
2018-10-03T09:48:27.055Z,9.47
2018-10-03T09:50:55.387Z,10.67
2018-10-03T09:53:23.707Z,8.70
2018-10-03T09:55:52.034Z,7.37
2018-10-03T09:58:20.345Z,6.87
2018-10-03T10:00:54.083Z,9.67
2018-10-03T10:03:22.461Z,7.27
2018-10-03T10:05:50.781Z,9.20
2018-10-03T10:08:19.113Z,7.27
2018-10-03T10:10:47.437Z,5.93
2018-10-03T10:13:15.777Z,9.13
2018-10-03T10:15:44.111Z,6.20
2018-10-03T10:18:12.469Z,5.70
2018-10-03T10:20:40.801Z,4.97
2018-10-03T10:23:09.150Z,5.87
2018-10-03T10:25:37.472Z,5.27
2018-10-03T10:28:06.446Z,4.60
2018-10-03T10:30:34.782Z,5.97
2018-10-03T10:33:03.222Z,7.13
2018-10-03T10:35:31.438Z,8.07
2018-10-03T10:37:59.777Z,4.97
2018-10-03T10:40:28.223Z,6.27
2018-10-03T10:42:56.532Z,8.37
2018-10-03T10:45:24.842Z,5.67
2018-10-03T10:47:53.170Z,6.30
2018-10-03T10:50:21.586Z,7.50
2018-10-03T10:52:49.869Z,5.80
2018-10-03T10:55:18.183Z,6.30
2018-10-03T10:57:46.505Z,4.23
2018-10-03T11:00:14.829Z,6.17
2018-10-03T11:02:43.157Z,4.93
2018-10-03T11:05:11.466Z,5.20
2018-10-03T11:07:39.818Z,7.47
2018-10-03T11:10:08.129Z,5.67
2018-10-03T11:12:36.458Z,7.27
2018-10-03T11:15:04.837Z,5.27
2018-10-03T11:17:33.182Z,6.20
2018-10-03T11:20:01.519Z,7.30
2018-10-03T11:22:29.881Z,3.90
2018-10-03T11:24:58.379Z,5.53
2018-10-03T11:27:26.520Z,8.33
2018-10-03T11:29:54.854Z,4.80
2018-10-03T11:32:23.195Z,5.37
2018-10-03T11:34:51.489Z,7.60
2018-10-03T11:37:19.825Z,6.90
2018-10-03T11:39:48.139Z,5.37
2018-10-03T11:42:16.531Z,5.30
2018-10-03T11:44:44.881Z,4.07
2018-10-03T11:47:13.205Z,8.47
2018-10-03T11:49:41.516Z,5.40
2018-10-03T11:52:09.898Z,4.93
2018-10-03T11:54:38.237Z,4.03
2018-10-03T11:57:06.620Z,5.67
2018-10-03T11:59:34.957Z,4.20
2018-10-03T12:02:03.249Z,5.00
2018-10-03T12:04:31.585Z,4.87
2018-10-03T12:06:59.901Z,3.87
2018-10-03T12:09:28.255Z,3.77
2018-10-03T12:11:56.560Z,4.30
2018-10-03T12:14:24.888Z,7.00
2018-10-03T12:16:53.221Z,8.70
2018-10-03T12:19:21.554Z,4.37
2018-10-03T12:21:49.869Z,3.23
2018-10-03T12:24:18.206Z,5.33
2018-10-03T12:26:46.526Z,5.60
2018-10-03T12:29:14.850Z,3.70
2018-10-03T12:31:43.184Z,6.43
2018-10-03T12:34:11.509Z,5.93
2018-10-03T12:36:39.967Z,5.97
2018-10-03T12:39:09.379Z,5.00
2018-10-03T12:41:38.252Z,4.37
2018-10-03T12:44:06.872Z,4.93
2018-10-03T12:46:35.254Z,4.80
2018-10-03T12:49:03.714Z,5.00
2018-10-03T12:51:32.058Z,5.80
2018-10-03T12:54:00.384Z,4.57
2018-10-03T12:56:28.717Z,3.23
2018-10-03T12:58:57.045Z,6.40
2018-10-03T13:01:25.442Z,5.73
2018-10-03T13:03:53.729Z,7.00
2018-10-03T13:06:22.119Z,4.47
2018-10-03T13:08:50.490Z,6.07
2018-10-03T13:11:18.858Z,4.30
2018-10-03T13:13:47.193Z,4.10
2018-10-03T13:16:15.545Z,5.43
2018-10-03T13:18:43.897Z,7.40
2018-10-03T13:21:12.189Z,5.47
2018-10-03T13:23:40.612Z,5.57
2018-10-03T13:26:08.950Z,6.63
2018-10-03T13:28:37.290Z,6.30
2018-10-03T13:31:05.662Z,4.80
2018-10-03T13:33:34.040Z,5.17
2018-10-03T13:36:02.352Z,8.97
2018-10-03T13:38:30.698Z,7.43
2018-10-03T13:40:59.043Z,6.70
2018-10-03T13:43:27.386Z,6.37
2018-10-03T13:45:55.717Z,9.00
2018-10-03T13:48:24.049Z,7.93
2018-10-03T13:50:52.367Z,5.93
2018-10-03T13:53:20.930Z,6.20
2018-10-03T13:55:49.280Z,6.70
2018-10-03T13:58:17.614Z,5.50
2018-10-03T14:00:45.993Z,4.57
2018-10-03T14:03:14.338Z,5.07
2018-10-03T14:05:42.672Z,7.07
2018-10-03T14:08:10.972Z,4.33
2018-10-03T14:10:39.345Z,5.03
2018-10-03T14:13:07.690Z,6.83
2018-10-03T14:15:36.050Z,5.80
2018-10-03T14:18:04.388Z,7.57
2018-10-03T14:20:32.755Z,6.40
2018-10-03T14:23:01.060Z,5.50
2018-10-03T14:25:35.940Z,5.50
2018-10-03T14:28:04.257Z,8.07
2018-10-03T14:30:32.581Z,6.63
2018-10-03T14:33:00.911Z,8.10
2018-10-03T14:35:29.317Z,6.00
2018-10-03T14:37:57.623Z,6.53
2018-10-03T14:40:25.957Z,5.50
2018-10-03T14:42:54.257Z,5.03
2018-10-03T14:45:22.592Z,8.40
2018-10-03T14:47:50.912Z,5.93
2018-10-03T14:50:19.273Z,9.33
2018-10-03T14:52:47.586Z,9.07
2018-10-03T14:55:15.918Z,7.10
2018-10-03T14:57:44.268Z,7.63
2018-10-03T15:00:12.591Z,7.53
2018-10-03T15:02:40.931Z,8.87
2018-10-03T15:05:09.260Z,8.03
2018-10-03T15:07:37.600Z,7.30
2018-10-03T15:10:06.280Z,5.13
2018-10-03T15:12:34.592Z,5.87
2018-10-03T15:15:02.952Z,7.17
2018-10-03T15:17:31.254Z,7.67
2018-10-03T15:19:59.581Z,9.33
2018-10-03T15:22:27.982Z,7.87
2018-10-03T15:24:56.315Z,5.93
2018-10-03T15:27:24.622Z,7.93
2018-10-03T15:29:53.129Z,6.83
2018-10-03T15:32:21.353Z,6.70
2018-10-03T15:34:49.669Z,6.57
2018-10-03T15:37:23.741Z,8.27
2018-10-03T15:39:52.069Z,7.87
2018-10-03T15:42:20.483Z,7.17
2018-10-03T15:44:48.939Z,6.63
2018-10-03T15:49:51.954Z,3.73
2018-10-03T15:52:20.245Z,5.03
2018-10-03T15:54:48.582Z,8.37
2018-10-03T15:57:16.884Z,7.17
2018-10-03T15:59:45.219Z,5.50
2018-10-03T16:02:13.534Z,4.67
2018-10-03T16:04:41.838Z,7.03
2018-10-03T16:07:10.164Z,4.07
2018-10-03T16:09:38.582Z,4.73
2018-10-03T16:12:07.565Z,7.73
2018-10-03T16:14:36.816Z,9.07
2018-10-03T16:17:05.176Z,10.83
2018-10-03T16:19:33.561Z,10.03
2018-10-03T16:22:01.873Z,8.93
2018-10-03T16:24:30.173Z,9.17
2018-10-03T16:26:58.493Z,9.90
2018-10-03T16:29:27.117Z,8.63
2018-10-03T16:31:55.448Z,11.90
2018-10-03T16:34:23.776Z,8.50
2018-10-03T16:36:52.097Z,12.57
2018-10-03T16:39:20.441Z,13.20
2018-10-03T16:44:23.478Z,9.20
2018-10-03T16:46:51.810Z,13.83
2018-10-03T16:49:20.133Z,7.00
2018-10-03T16:51:48.478Z,10.20
2018-10-03T16:54:16.784Z,8.67
2018-10-03T16:56:45.133Z,11.10
2018-10-03T16:59:13.477Z,11.73
2018-10-03T17:01:41.818Z,17.17
2018-10-03T17:04:10.229Z,10.73
2018-10-03T17:06:38.596Z,18.60
2018-10-03T17:09:07.580Z,13.13
2018-10-03T17:11:36.593Z,15.57
2018-10-03T17:14:16.778Z,13.23
2018-10-03T17:16:45.124Z,14.10
2018-10-03T17:19:13.590Z,11.27
2018-10-03T17:21:41.903Z,12.80
2018-10-03T17:24:10.214Z,17.43
2018-10-03T17:26:38.536Z,14.57
2018-10-03T17:29:06.925Z,12.07
2018-10-03T17:31:36.205Z,10.53
2018-10-03T17:34:04.615Z,15.87
2018-10-03T17:36:33.165Z,16.73
2018-10-03T17:39:01.486Z,13.87
2018-10-03T17:41:29.834Z,20.50
2018-10-03T17:43:58.137Z,12.07
2018-10-03T17:46:26.592Z,13.03
2018-10-03T17:48:54.972Z,9.30
2018-10-03T17:51:23.533Z,14.47
2018-10-03T17:53:51.869Z,13.33
2018-10-03T17:56:20.232Z,15.60
2018-10-03T17:58:48.605Z,14.07
2018-10-03T18:01:16.929Z,14.27
2018-10-03T18:03:45.438Z,11.47
2018-10-03T18:06:13.782Z,15.53
2018-10-03T18:08:42.117Z,15.73
2018-10-03T18:11:10.450Z,15.63
2018-10-03T18:13:38.859Z,18.27
2018-10-03T18:16:07.312Z,16.77
2018-10-03T18:18:35.992Z,18.47
2018-10-03T18:21:04.350Z,21.27
2018-10-03T18:23:32.845Z,18.30
2018-10-03T18:26:01.379Z,20.20
2018-10-03T18:28:29.681Z,19.33
2018-10-03T18:30:58.032Z,20.27
2018-10-03T18:33:26.322Z,16.83
2018-10-03T18:35:54.858Z,24.50
2018-10-03T18:38:23.184Z,19.43
2018-10-03T18:40:51.543Z,19.03
2018-10-03T18:43:19.863Z,20.80
2018-10-03T18:45:48.354Z,15.83
2018-10-03T18:48:16.666Z,15.87
2018-10-03T18:50:44.973Z,19.93
2018-10-03T18:53:13.309Z,18.97
2018-10-03T18:55:41.731Z,16.63
2018-10-03T18:58:10.914Z,23.27
2018-10-03T19:00:39.228Z,19.17
2018-10-03T19:03:08.018Z,17.03
2018-10-03T19:05:36.346Z,18.73
2018-10-03T19:08:04.670Z,15.47
2018-10-03T19:10:32.980Z,17.80
2018-10-03T19:13:01.318Z,15.73
2018-10-03T19:15:29.628Z,23.47
2018-10-03T19:17:58.043Z,27.43
2018-10-03T19:20:26.325Z,27.87
2018-10-03T19:22:54.657Z,27.60
2018-10-03T19:25:23.025Z,26.53
2018-10-03T19:27:51.337Z,21.67
2018-10-03T19:30:19.764Z,21.20
2018-10-03T19:32:48.101Z,20.33
2018-10-03T19:35:16.400Z,24.07
2018-10-03T19:37:44.720Z,19.00
2018-10-03T19:40:13.045Z,21.43
2018-10-03T19:42:41.363Z,16.53
2018-10-03T19:45:09.954Z,17.27
2018-10-03T19:47:38.285Z,19.40
2018-10-03T19:50:06.586Z,18.97
2018-10-03T19:52:35.005Z,17.80
2018-10-03T19:55:03.325Z,17.90
2018-10-03T19:57:31.866Z,20.20
2018-10-03T20:00:00.185Z,20.53
2018-10-03T20:02:28.500Z,17.80
2018-10-03T20:04:56.799Z,18.60
2018-10-03T20:07:25.125Z,16.53
2018-10-03T20:09:53.429Z,14.80
2018-10-03T20:12:21.761Z,15.70
2018-10-03T20:14:50.084Z,16.63
2018-10-03T20:17:18.385Z,13.40
2018-10-03T20:19:46.705Z,15.27
2018-10-03T20:22:15.112Z,16.80
2018-10-03T20:24:43.433Z,15.40
2018-10-03T20:27:12.291Z,16.03
2018-10-03T20:29:40.628Z,16.20
2018-10-03T20:32:08.946Z,18.00
2018-10-03T20:34:37.629Z,19.77
2018-10-03T20:37:06.128Z,17.10
2018-10-03T20:39:34.439Z,17.17
2018-10-03T20:42:02.762Z,18.83
2018-10-03T20:44:31.096Z,20.17
2018-10-03T20:46:59.377Z,19.00
2018-10-03T20:49:27.705Z,20.33
2018-10-03T20:51:56.007Z,17.60
2018-10-03T20:54:24.402Z,18.83
2018-10-03T20:56:52.641Z,13.53
2018-10-03T20:59:20.961Z,15.57
2018-10-03T21:01:49.277Z,15.77
2018-10-03T21:04:17.592Z,16.77
2018-10-03T21:06:45.896Z,13.80
2018-10-03T21:09:14.237Z,12.73
2018-10-03T21:11:42.545Z,16.77
2018-10-03T21:14:11.073Z,13.03
2018-10-03T21:16:39.373Z,11.53
2018-10-03T21:19:07.703Z,17.13
2018-10-03T21:21:36.073Z,14.83
2018-10-03T21:24:04.431Z,18.87
2018-10-03T21:26:32.739Z,15.90
2018-10-03T21:29:01.062Z,13.40
2018-10-03T21:31:29.402Z,13.80
2018-10-03T21:33:57.743Z,18.10
2018-10-03T21:36:26.055Z,11.63
2018-10-03T21:38:54.417Z,15.40
2018-10-03T21:41:22.731Z,20.57
2018-10-03T21:43:51.062Z,12.13
2018-10-03T21:46:19.393Z,11.33
2018-10-03T21:48:47.953Z,14.93
2018-10-03T21:51:16.281Z,15.30
2018-10-03T21:53:44.597Z,18.27
2018-10-03T21:56:12.901Z,16.80
2018-10-03T21:58:41.233Z,16.93
2018-10-03T22:01:09.577Z,17.17
2018-10-03T22:03:37.910Z,12.27
2018-10-03T22:06:06.216Z,18.20
2018-10-03T22:08:34.553Z,16.57
2018-10-03T22:11:02.886Z,11.60
2018-10-03T22:13:31.209Z,12.53
2018-10-03T22:15:59.545Z,17.60
2018-10-03T22:18:27.861Z,13.07
2018-10-03T22:20:56.184Z,17.57
2018-10-03T22:23:24.494Z,16.57
2018-10-03T22:25:52.832Z,12.10
2018-10-03T22:28:21.135Z,14.33
2018-10-03T22:30:49.630Z,10.80
2018-10-03T22:33:17.960Z,16.97
2018-10-03T22:35:46.300Z,19.00
2018-10-03T22:38:14.625Z,13.73
2018-10-03T22:40:42.941Z,11.70
2018-10-03T22:43:11.229Z,13.40
2018-10-03T22:45:39.540Z,13.00
2018-10-03T22:48:07.834Z,11.07
2018-10-03T22:50:36.148Z,10.70
2018-10-03T22:53:04.451Z,13.73
2018-10-03T22:55:32.800Z,11.70
2018-10-03T22:58:01.110Z,14.37
2018-10-03T23:00:29.424Z,16.17
2018-10-03T23:02:57.748Z,15.13
2018-10-03T23:05:26.073Z,11.33
2018-10-03T23:07:54.409Z,10.77
2018-10-03T23:10:22.731Z,14.90
2018-10-03T23:12:51.037Z,12.50
2018-10-03T23:15:19.357Z,14.63
2018-10-03T23:17:47.652Z,13.33
2018-10-03T23:20:16.096Z,16.50
2018-10-03T23:22:44.392Z,10.70
2018-10-03T23:25:12.732Z,12.80
2018-10-03T23:27:41.027Z,16.27
2018-10-03T23:30:09.390Z,13.27
2018-10-03T23:32:37.705Z,18.17
2018-10-03T23:35:06.064Z,15.57
2018-10-03T23:37:34.382Z,12.93
2018-10-03T23:40:02.715Z,13.07
2018-10-03T23:42:31.029Z,19.03
2018-10-03T23:44:59.369Z,13.77
2018-10-03T23:47:27.676Z,10.73
2018-10-03T23:49:56.143Z,15.90
2018-10-03T23:52:24.450Z,10.87
2018-10-03T23:54:52.769Z,15.90
2018-10-03T23:57:21.093Z,12.53
2018-10-03T23:59:49.401Z,15.83
